sensor_id;sensor_type;location;lat;lon;timestamp;pressure;altitude;pressure_sealevel;temperature;humidity
33155;BME280;19511;42.682;23.332;2022-11-25T00:00:10;94932.00;;;5.88;100.00
33155;BME280;19511;42.682;23.332;2022-11-25T00:02:35;94906.41;;;5.70;100.00
33155;BME280;19511;42.682;23.332;2022-11-25T00:05:01;94938.25;;;5.89;100.00
33155;BME280;19511;42.682;23.332;2022-11-25T00:07:26;94922.53;;;5.71;100.00
33155;BME280;19511;42.682;23.332;2022-11-25T00:09:51;94925.22;;;5.64;100.00
33155;BME280;19511;42.682;23.332;2022-11-25T00:12:17;94940.53;;;5.72;100.00
33155;BME280;19511;42.682;23.332;2022-11-25T00:14:42;94935.81;;;5.66;100.00
33155;BME280;19511;42.682;23.332;2022-11-25T00:17:08;94948.03;;;5.79;100.00
33155;BME280;19511;42.682;23.332;2022-11-25T00:19:33;94946.03;;;5.76;100.00
33155;BME280;19511;42.682;23.332;2022-11-25T00:21:58;94954.69;;;5.78;100.00
33155;BME280;19511;42.682;23.332;2022-11-25T00:24:24;94954.31;;;5.83;100.00
33155;BME280;19511;42.682;23.332;2022-11-25T00:26:49;94859.53;;;5.19;100.00
33155;BME280;19511;42.682;23.332;2022-11-25T00:29:15;94961.00;;;5.86;100.00
33155;BME280;19511;42.682;23.332;2022-11-25T00:31:40;94883.09;;;5.31;100.00
33155;BME280;19511;42.682;23.332;2022-11-25T00:34:06;94861.09;;;5.20;100.00
33155;BME280;19511;42.682;23.332;2022-11-25T00:36:36;94958.66;;;5.84;100.00
33155;BME280;19511;42.682;23.332;2022-11-25T00:39:10;94961.00;;;5.86;100.00
33155;BME280;19511;42.682;23.332;2022-11-25T00:41:35;94919.66;;;5.53;100.00
33155;BME280;19511;42.682;23.332;2022-11-25T00:44:19;94966.88;;;5.81;100.00
33155;BME280;19511;42.682;23.332;2022-11-25T00:47:14;94959.75;;;5.72;100.00
33155;BME280;19511;42.682;23.332;2022-11-25T00:49:42;94964.47;;;5.76;100.00
33155;BME280;19511;42.682;23.332;2022-11-25T00:52:09;94882.25;;;5.20;100.00
33155;BME280;19511;42.682;23.332;2022-11-25T00:54:37;94864.97;;;5.12;100.00
33155;BME280;19511;42.682;23.332;2022-11-25T00:57:02;94865.38;;;5.14;100.00
33155;BME280;19511;42.682;23.332;2022-11-25T00:59:28;94955.44;;;5.68;100.00
33155;BME280;19511;42.682;23.332;2022-11-25T01:01:53;94940.06;;;5.60;100.00
33155;BME280;19511;42.682;23.332;2022-11-25T01:04:19;94869.72;;;5.22;100.00
33155;BME280;19511;42.682;23.332;2022-11-25T01:06:45;94882.31;;;5.34;100.00
33155;BME280;19511;42.682;23.332;2022-11-25T01:09:11;94968.06;;;5.83;100.00
33155;BME280;19511;42.682;23.332;2022-11-25T01:11:37;94899.59;;;5.42;100.00
33155;BME280;19511;42.682;23.332;2022-11-25T01:14:04;94966.09;;;5.84;100.00
33155;BME280;19511;42.682;23.332;2022-11-25T01:16:30;94959.41;;;5.81;100.00
33155;BME280;19511;42.682;23.332;2022-11-25T01:18:57;94958.56;;;5.73;100.00
33155;BME280;19511;42.682;23.332;2022-11-25T01:21:30;94948.41;;;5.74;100.00
33155;BME280;19511;42.682;23.332;2022-11-25T01:23:58;94950.38;;;5.77;100.00
33155;BME280;19511;42.682;23.332;2022-11-25T01:26:24;94946.09;;;5.83;100.00
33155;BME280;19511;42.682;23.332;2022-11-25T01:29:00;94948.44;;;5.78;100.00
33155;BME280;19511;42.682;23.332;2022-11-25T01:31:29;94960.22;;;5.85;100.00
33155;BME280;19511;42.682;23.332;2022-11-25T01:34:07;94942.13;;;5.77;100.00
33155;BME280;19511;42.682;23.332;2022-11-25T01:36:32;94954.75;;;5.93;100.00
33155;BME280;19511;42.682;23.332;2022-11-25T01:38:59;94863.50;;;5.33;100.00
33155;BME280;19511;42.682;23.332;2022-11-25T01:41:27;94950.84;;;5.94;100.00
33155;BME280;19511;42.682;23.332;2022-11-25T01:49:05;94943.41;;;5.94;100.00
33155;BME280;19511;42.682;23.332;2022-11-25T01:51:46;94924.16;;;5.87;100.00
33155;BME280;19511;42.682;23.332;2022-11-25T01:54:15;94921.38;;;5.83;100.00
33155;BME280;19511;42.682;23.332;2022-11-25T01:56:50;94929.34;;;6.03;100.00
33155;BME280;19511;42.682;23.332;2022-11-25T01:59:17;94932.44;;;5.98;100.00
33155;BME280;19511;42.682;23.332;2022-11-25T02:01:42;94841.66;;;5.47;100.00
33155;BME280;19511;42.682;23.332;2022-11-25T02:04:09;94930.47;;;5.95;100.00
33155;BME280;19511;42.682;23.332;2022-11-25T02:06:43;94932.88;;;6.03;100.00
33155;BME280;19511;42.682;23.332;2022-11-25T02:09:10;94937.97;;;6.05;100.00
33155;BME280;19511;42.682;23.332;2022-11-25T02:11:39;94951.72;;;6.05;100.00
33155;BME280;19511;42.682;23.332;2022-11-25T02:14:07;94931.28;;;5.99;100.00
33155;BME280;19511;42.682;23.332;2022-11-25T02:16:34;94938.00;;;6.09;100.00
33155;BME280;19511;42.682;23.332;2022-11-25T02:19:00;94933.63;;;6.00;100.00
33155;BME280;19511;42.682;23.332;2022-11-25T02:21:37;94947.00;;;6.02;100.00
33155;BME280;19511;42.682;23.332;2022-11-25T02:24:39;94949.34;;;6.03;100.00
33155;BME280;19511;42.682;23.332;2022-11-25T02:27:00;94957.97;;;6.05;100.00
33155;BME280;19511;42.682;23.332;2022-11-25T02:29:26;94950.94;;;6.04;100.00
33155;BME280;19511;42.682;23.332;2022-11-25T02:31:52;94871.41;;;5.45;100.00
33155;BME280;19511;42.682;23.332;2022-11-25T02:34:17;94965.44;;;6.05;100.00
33155;BME280;19511;42.682;23.332;2022-11-25T02:36:43;94946.16;;;5.98;100.00
33155;BME280;19511;42.682;23.332;2022-11-25T02:39:08;94957.97;;;6.05;100.00
33155;BME280;19511;42.682;23.332;2022-11-25T02:41:38;94864.38;;;5.48;100.00
33155;BME280;19511;42.682;23.332;2022-11-25T02:44:07;94952.50;;;6.05;100.00
33155;BME280;19511;42.682;23.332;2022-11-25T02:46:33;94953.28;;;6.06;100.00
33155;BME280;19511;42.682;23.332;2022-11-25T02:48:59;94937.59;;;5.99;100.00
33155;BME280;19511;42.682;23.332;2022-11-25T02:51:27;94958.78;;;6.06;100.00
33155;BME280;19511;42.682;23.332;2022-11-25T02:53:53;94953.56;;;5.90;100.00
33155;BME280;19511;42.682;23.332;2022-11-25T02:56:22;94867.06;;;5.37;100.00
33155;BME280;19511;42.682;23.332;2022-11-25T02:58:48;94959.88;;;5.98;100.00
33155;BME280;19511;42.682;23.332;2022-11-25T03:01:14;94953.56;;;5.90;100.00
33155;BME280;19511;42.682;23.332;2022-11-25T03:03:39;94957.88;;;5.87;100.00
33155;BME280;19511;42.682;23.332;2022-11-25T03:06:05;94857.97;;;5.22;100.00
33155;BME280;19511;42.682;23.332;2022-11-25T03:08:30;94967.28;;;5.86;100.00
33155;BME280;19511;42.682;23.332;2022-11-25T03:10:56;94958.66;;;5.84;100.00
33155;BME280;19511;42.682;23.332;2022-11-25T03:13:21;94952.38;;;5.80;100.00
33155;BME280;19511;42.682;23.332;2022-11-25T03:15:47;94977.50;;;5.89;100.00
33155;BME280;19511;42.682;23.332;2022-11-25T03:18:12;94969.53;;;5.70;100.00
33155;BME280;19511;42.682;23.332;2022-11-25T03:20:38;94976.63;;;5.75;100.00
33155;BME280;19511;42.682;23.332;2022-11-25T03:23:08;94975.88;;;5.78;100.00
33155;BME280;19511;42.682;23.332;2022-11-25T03:25:34;94978.19;;;5.72;100.00
33155;BME280;19511;42.682;23.332;2022-11-25T03:28:00;94959.75;;;5.69;100.00
33155;BME280;19511;42.682;23.332;2022-11-25T03:30:27;94896.34;;;5.18;100.00
33155;BME280;19511;42.682;23.332;2022-11-25T03:32:53;94986.41;;;5.72;100.00
33155;BME280;19511;42.682;23.332;2022-11-25T03:35:22;94980.13;;;5.68;100.00
33155;BME280;19511;42.682;23.332;2022-11-25T03:37:48;94989.19;;;5.76;100.00
33155;BME280;19511;42.682;23.332;2022-11-25T03:40:14;94993.88;;;5.75;100.00
33155;BME280;19511;42.682;23.332;2022-11-25T03:42:40;94992.25;;;5.67;100.00
33155;BME280;19511;42.682;23.332;2022-11-25T03:45:06;94989.47;;;5.60;100.00
33155;BME280;19511;42.682;23.332;2022-11-25T03:47:32;94919.00;;;5.12;100.00
33155;BME280;19511;42.682;23.332;2022-11-25T03:49:57;95007.94;;;5.70;100.00
33155;BME280;19511;42.682;23.332;2022-11-25T03:52:23;94989.41;;;5.49;100.00
33155;BME280;19511;42.682;23.332;2022-11-25T03:54:49;95017.25;;;5.54;100.00
33155;BME280;19511;42.682;23.332;2022-11-25T03:57:14;94988.16;;;5.39;100.00
33155;BME280;19511;42.682;23.332;2022-11-25T03:59:40;94930.25;;;4.96;100.00
33155;BME280;19511;42.682;23.332;2022-11-25T04:02:05;95013.25;;;5.41;100.00
33155;BME280;19511;42.682;23.332;2022-11-25T04:04:31;94920.31;;;4.80;100.00
33155;BME280;19511;42.682;23.332;2022-11-25T04:06:56;94940.75;;;4.90;100.00
33155;BME280;19511;42.682;23.332;2022-11-25T04:09:22;95042.31;;;5.49;100.00
33155;BME280;19511;42.682;23.332;2022-11-25T04:11:47;94941.50;;;4.87;100.00
33155;BME280;19511;42.682;23.332;2022-11-25T04:14:31;95018.72;;;5.37;100.00
33155;BME280;19511;42.682;23.332;2022-11-25T04:16:57;95018.94;;;5.21;100.00
33155;BME280;19511;42.682;23.332;2022-11-25T04:19:22;95035.13;;;5.34;100.00
33155;BME280;19511;42.682;23.332;2022-11-25T04:21:48;95050.41;;;5.35;100.00
33155;BME280;19511;42.682;23.332;2022-11-25T04:24:14;95022.88;;;5.24;100.00
33155;BME280;19511;42.682;23.332;2022-11-25T04:26:39;95046.09;;;5.34;100.00
33155;BME280;19511;42.682;23.332;2022-11-25T04:29:05;94952.72;;;4.71;100.00
33155;BME280;19511;42.682;23.332;2022-11-25T04:31:31;95060.97;;;5.33;100.00
33155;BME280;19511;42.682;23.332;2022-11-25T04:33:57;94970.78;;;4.76;100.00
33155;BME280;19511;42.682;23.332;2022-11-25T04:36:22;94949.16;;;4.67;100.00
33155;BME280;19511;42.682;23.332;2022-11-25T04:38:48;95052.66;;;5.22;100.00
33155;BME280;19511;42.682;23.332;2022-11-25T04:41:13;95058.63;;;5.31;100.00
33155;BME280;19511;42.682;23.332;2022-11-25T04:43:38;95064.03;;;5.24;100.00
33155;BME280;19511;42.682;23.332;2022-11-25T04:46:04;94992.31;;;4.77;100.00
33155;BME280;19511;42.682;23.332;2022-11-25T04:48:30;95074.28;;;5.31;100.00
33155;BME280;19511;42.682;23.332;2022-11-25T04:50:55;95062.44;;;5.19;100.00
33155;BME280;19511;42.682;23.332;2022-11-25T04:53:21;95083.69;;;5.30;100.00
33155;BME280;19511;42.682;23.332;2022-11-25T04:55:50;95001.69;;;4.72;100.00
33155;BME280;19511;42.682;23.332;2022-11-25T04:58:16;95015.81;;;4.78;100.00
33155;BME280;19511;42.682;23.332;2022-11-25T05:01:01;95078.88;;;5.19;100.00
33155;BME280;19511;42.682;23.332;2022-11-25T05:03:27;95098.13;;;5.27;100.00
33155;BME280;19511;42.682;23.332;2022-11-25T05:05:52;95089.13;;;5.26;100.00
33155;BME280;19511;42.682;23.332;2022-11-25T05:08:17;95093.72;;;5.15;100.00
33155;BME280;19511;42.682;23.332;2022-11-25T05:10:43;95106.75;;;5.25;100.00
33155;BME280;19511;42.682;23.332;2022-11-25T05:13:08;95105.50;;;5.19;100.00
33155;BME280;19511;42.682;23.332;2022-11-25T05:15:33;95102.41;;;5.24;100.00
33155;BME280;19511;42.682;23.332;2022-11-25T05:17:59;95015.25;;;4.62;100.00
33155;BME280;19511;42.682;23.332;2022-11-25T05:20:24;95110.97;;;5.19;100.00
33155;BME280;19511;42.682;23.332;2022-11-25T05:22:50;95107.53;;;5.26;100.00
33155;BME280;19511;42.682;23.332;2022-11-25T05:25:15;95127.59;;;5.33;100.00
33155;BME280;19511;42.682;23.332;2022-11-25T05:27:40;95130.78;;;5.39;100.00
33155;BME280;19511;42.682;23.332;2022-11-25T05:30:07;95033.69;;;4.65;100.00
33155;BME280;19511;42.682;23.332;2022-11-25T05:32:32;95048.75;;;4.82;100.00
33155;BME280;19511;42.682;23.332;2022-11-25T05:34:58;95132.34;;;5.40;100.00
33155;BME280;19511;42.682;23.332;2022-11-25T05:37:23;95144.16;;;5.44;100.00
33155;BME280;19511;42.682;23.332;2022-11-25T05:39:48;95148.00;;;5.39;100.00
33155;BME280;19511;42.682;23.332;2022-11-25T05:42:14;95159.09;;;5.50;100.00
33155;BME280;19511;42.682;23.332;2022-11-25T05:44:39;95082.22;;;5.02;100.00
33155;BME280;19511;42.682;23.332;2022-11-25T05:47:05;95138.59;;;5.37;100.00
33155;BME280;19511;42.682;23.332;2022-11-25T05:49:31;95165.84;;;5.56;100.00
33155;BME280;19511;42.682;23.332;2022-11-25T05:51:56;95166.22;;;5.59;100.00
33155;BME280;19511;42.682;23.332;2022-11-25T05:54:21;95140.66;;;5.47;100.00
33155;BME280;19511;42.682;23.332;2022-11-25T05:56:47;95156.84;;;5.60;100.00
33155;BME280;19511;42.682;23.332;2022-11-25T05:59:12;95160.81;;;5.66;100.00
33155;BME280;19511;42.682;23.332;2022-11-25T06:01:38;95171.06;;;5.69;100.00
33155;BME280;19511;42.682;23.332;2022-11-25T06:04:04;95160.81;;;5.66;100.00
33155;BME280;19511;42.682;23.332;2022-11-25T06:06:29;95173.44;;;5.74;100.00
33155;BME280;19511;42.682;23.332;2022-11-25T06:08:56;95174.66;;;5.77;100.00
33155;BME280;19511;42.682;23.332;2022-11-25T06:11:21;95182.91;;;5.80;100.00
33155;BME280;19511;42.682;23.332;2022-11-25T06:13:47;95192.72;;;5.81;100.00
33155;BME280;19511;42.682;23.332;2022-11-25T06:16:18;95196.31;;;5.89;100.00
33155;BME280;19511;42.682;23.332;2022-11-25T06:18:45;95184.13;;;5.83;100.00
33155;BME280;19511;42.682;23.332;2022-11-25T06:21:11;95180.19;;;5.84;100.00
33155;BME280;19511;42.682;23.332;2022-11-25T06:23:37;95203.50;;;6.01;100.00
33155;BME280;19511;42.682;23.332;2022-11-25T06:26:09;95194.00;;;5.95;100.00
33155;BME280;19511;42.682;23.332;2022-11-25T06:28:36;95165.97;;;5.71;100.00
33155;BME280;19511;42.682;23.332;2022-11-25T06:31:11;95210.09;;;5.96;100.00
33155;BME280;19511;42.682;23.332;2022-11-25T06:33:37;95215.66;;;6.00;100.00
33155;BME280;19511;42.682;23.332;2022-11-25T06:36:04;95213.69;;;6.00;100.00
33155;BME280;19511;42.682;23.332;2022-11-25T06:38:30;95234.81;;;5.96;100.00
33155;BME280;19511;42.682;23.332;2022-11-25T06:41:02;95193.47;;;5.78;100.00
33155;BME280;19511;42.682;23.332;2022-11-25T06:43:28;95225.78;;;5.96;100.00
33155;BME280;19511;42.682;23.332;2022-11-25T06:45:54;95219.09;;;5.93;100.00
33155;BME280;19511;42.682;23.332;2022-11-25T06:48:20;95203.34;;;5.86;100.00
33155;BME280;19511;42.682;23.332;2022-11-25T06:50:54;95227.81;;;5.99;100.00
33155;BME280;19511;42.682;23.332;2022-11-25T06:53:20;95229.31;;;5.96;100.00
33155;BME280;19511;42.682;23.332;2022-11-25T06:55:46;95225.00;;;5.95;100.00
33155;BME280;19511;42.682;23.332;2022-11-25T06:58:11;95230.97;;;6.01;100.00
33155;BME280;19511;42.682;23.332;2022-11-25T07:00:37;95230.44;;;5.92;100.00
33155;BME280;19511;42.682;23.332;2022-11-25T07:03:02;95236.47;;;6.01;100.00
33155;BME280;19511;42.682;23.332;2022-11-25T07:05:27;95236.84;;;5.99;100.00
33155;BME280;19511;42.682;23.332;2022-11-25T07:07:53;95249.91;;;6.13;100.00
33155;BME280;19511;42.682;23.332;2022-11-25T07:10:21;95264.84;;;6.16;100.00
33155;BME280;19511;42.682;23.332;2022-11-25T07:12:47;95203.34;;;5.86;100.00
33155;BME280;19511;42.682;23.332;2022-11-25T07:15:13;95246.78;;;6.15;100.00
33155;BME280;19511;42.682;23.332;2022-11-25T07:17:38;95261.81;;;6.32;100.00
33155;BME280;19511;42.682;23.332;2022-11-25T07:20:04;95156.09;;;5.63;100.00
33155;BME280;19511;42.682;23.332;2022-11-25T07:22:29;95257.16;;;6.36;100.00
33155;BME280;19511;42.682;23.332;2022-11-25T07:24:55;95214.88;;;6.03;100.00
33155;BME280;19511;42.682;23.332;2022-11-25T07:27:20;95249.25;;;6.31;100.00
33155;BME280;19511;42.682;23.332;2022-11-25T07:29:49;95262.28;;;6.41;100.00
33155;BME280;19511;42.682;23.332;2022-11-25T07:32:15;95212.00;;;5.88;100.00
33155;BME280;19511;42.682;23.332;2022-11-25T07:34:40;95209.78;;;6.01;100.00
33155;BME280;19511;42.682;23.332;2022-11-25T07:37:06;95264.97;;;6.30;100.00
33155;BME280;19511;42.682;23.332;2022-11-25T07:39:32;95263.81;;;6.31;100.00
33155;BME280;19511;42.682;23.332;2022-11-25T07:41:58;95167.06;;;5.63;100.00
33155;BME280;19511;42.682;23.332;2022-11-25T07:44:23;95272.34;;;6.23;100.00
33155;BME280;19511;42.682;23.332;2022-11-25T07:46:49;95211.84;;;5.70;100.00
33155;BME280;19511;42.682;23.332;2022-11-25T07:49:18;95283.69;;;6.17;100.00
33155;BME280;19511;42.682;23.332;2022-11-25T07:54:12;95269.25;;;6.28;100.00
33155;BME280;19511;42.682;23.332;2022-11-25T07:56:40;95280.13;;;6.62;100.00
33155;BME280;19511;42.682;23.332;2022-11-25T07:59:10;95264.88;;;6.68;100.00
33155;BME280;19511;42.682;23.332;2022-11-25T08:01:36;95172.19;;;6.09;100.00
33155;BME280;19511;42.682;23.332;2022-11-25T08:04:01;95284.28;;;6.97;100.00
33155;BME280;19511;42.682;23.332;2022-11-25T08:06:28;95262.03;;;7.20;100.00
33155;BME280;19511;42.682;23.332;2022-11-25T08:08:55;95195.81;;;6.77;100.00
33155;BME280;19511;42.682;23.332;2022-11-25T08:11:24;95291.97;;;7.36;100.00
33155;BME280;19511;42.682;23.332;2022-11-25T08:13:50;95291.53;;;7.27;100.00
33155;BME280;19511;42.682;23.332;2022-11-25T08:16:23;95298.63;;;7.35;100.00
33155;BME280;19511;42.682;23.332;2022-11-25T08:18:54;95193.81;;;6.74;100.00
33155;BME280;19511;42.682;23.332;2022-11-25T08:21:20;95304.88;;;7.25;100.00
33155;BME280;19511;42.682;23.332;2022-11-25T08:23:46;95297.78;;;7.16;100.00
33155;BME280;19511;42.682;23.332;2022-11-25T08:28:45;95294.91;;;6.98;100.00
33155;BME280;19511;42.682;23.332;2022-11-25T08:31:20;95310.63;;;6.98;100.00
33155;BME280;19511;42.682;23.332;2022-11-25T08:33:47;95304.25;;;6.86;100.00
33155;BME280;19511;42.682;23.332;2022-11-25T08:36:14;95302.34;;;6.94;100.00
33155;BME280;19511;42.682;23.332;2022-11-25T08:38:40;95235.81;;;6.70;100.00
33155;BME280;19511;42.682;23.332;2022-11-25T08:41:15;95298.66;;;7.31;100.00
33155;BME280;19511;42.682;23.332;2022-11-25T08:43:41;95294.72;;;7.36;100.00
33155;BME280;19511;42.682;23.332;2022-11-25T08:46:08;95304.13;;;7.28;100.00
33155;BME280;19511;42.682;23.332;2022-11-25T08:48:34;95207.56;;;6.74;100.00
33155;BME280;19511;42.682;23.332;2022-11-25T08:50:59;95304.25;;;7.53;100.00
33155;BME280;19511;42.682;23.332;2022-11-25T08:53:25;95308.97;;;7.56;100.00
33155;BME280;19511;42.682;23.332;2022-11-25T08:55:51;95292.88;;;7.62;100.00
33155;BME280;19511;42.682;23.332;2022-11-25T08:58:16;95288.56;;;7.68;100.00
33155;BME280;19511;42.682;23.332;2022-11-25T09:00:43;95301.63;;;8.04;100.00
33155;BME280;19511;42.682;23.332;2022-11-25T09:03:10;95301.69;;;8.14;100.00
33155;BME280;19511;42.682;23.332;2022-11-25T09:05:40;95209.84;;;7.45;100.00
33155;BME280;19511;42.682;23.332;2022-11-25T09:08:09;95219.31;;;7.55;100.00
33155;BME280;19511;42.682;23.332;2022-11-25T09:10:37;95299.72;;;8.18;100.00
33155;BME280;19511;42.682;23.332;2022-11-25T09:13:03;95305.97;;;8.01;100.00
33155;BME280;19511;42.682;23.332;2022-11-25T09:15:28;95191.69;;;7.19;100.00
33155;BME280;19511;42.682;23.332;2022-11-25T09:18:01;95300.78;;;7.74;100.00
33155;BME280;19511;42.682;23.332;2022-11-25T09:20:27;95283.88;;;7.72;100.00
33155;BME280;19511;42.682;23.332;2022-11-25T09:22:52;95300.81;;;7.81;100.00
33155;BME280;19511;42.682;23.332;2022-11-25T09:25:19;95293.31;;;7.82;100.00
33155;BME280;19511;42.682;23.332;2022-11-25T09:27:45;95304.78;;;7.98;100.00
33155;BME280;19511;42.682;23.332;2022-11-25T09:30:11;95294.94;;;7.94;100.00
33155;BME280;19511;42.682;23.332;2022-11-25T09:32:36;95307.94;;;8.00;100.00
33155;BME280;19511;42.682;23.332;2022-11-25T09:35:02;95327.22;;;8.00;100.00
33155;BME280;19511;42.682;23.332;2022-11-25T09:37:27;95303.56;;;7.85;100.00
33155;BME280;19511;42.682;23.332;2022-11-25T09:39:53;95273.25;;;7.67;100.00
33155;BME280;19511;42.682;23.332;2022-11-25T09:45:19;95305.19;;;8.00;100.00
33155;BME280;19511;42.682;23.332;2022-11-25T09:48:45;95225.56;;;7.45;100.00
33155;BME280;19511;42.682;23.332;2022-11-25T09:54:20;95310.63;;;7.79;100.00
33155;BME280;19511;42.682;23.332;2022-11-25T09:56:52;95288.94;;;7.63;100.00
33155;BME280;19511;42.682;23.332;2022-11-25T09:59:26;95316.09;;;7.68;100.00
33155;BME280;19511;42.682;23.332;2022-11-25T10:02:02;95305.91;;;7.72;100.00
33155;BME280;19511;42.682;23.332;2022-11-25T10:07:51;95233.41;;;7.35;100.00
33155;BME280;19511;42.682;23.332;2022-11-25T10:10:29;95313.28;;;7.54;100.00
33155;BME280;19511;42.682;23.332;2022-11-25T10:12:57;95320.69;;;7.42;100.00
33155;BME280;19511;42.682;23.332;2022-11-25T10:15:31;95312.09;;;7.51;100.00
33155;BME280;19511;42.682;23.332;2022-11-25T10:18:14;95309.03;;;7.74;100.00
33155;BME280;19511;42.682;23.332;2022-11-25T10:20:41;95306.28;;;7.74;100.00
33155;BME280;19511;42.682;23.332;2022-11-25T10:23:21;95209.41;;;7.29;100.00
33155;BME280;19511;42.682;23.332;2022-11-25T10:25:52;95300.47;;;8.05;100.00
33155;BME280;19511;42.682;23.332;2022-11-25T10:28:30;95144.44;;;6.95;100.00
33155;BME280;19511;42.682;23.332;2022-11-25T10:31:15;95295.72;;;7.94;100.00
33155;BME280;19511;42.682;23.332;2022-11-25T10:33:50;95300.81;;;7.85;100.00
33155;BME280;19511;42.682;23.332;2022-11-25T10:38:58;95305.41;;;7.48;100.00
33155;BME280;19511;42.682;23.332;2022-11-25T10:41:28;95290.75;;;7.30;100.00
33155;BME280;19511;42.682;23.332;2022-11-25T10:43:56;95297.13;;;7.45;100.00
33155;BME280;19511;42.682;23.332;2022-11-25T10:49:06;95260.06;;;7.21;100.00
33155;BME280;19511;42.682;23.332;2022-11-25T10:54:23;95298.28;;;7.37;100.00
33155;BME280;19511;42.682;23.332;2022-11-25T10:59:35;95310.56;;;7.61;100.00
33155;BME280;19511;42.682;23.332;2022-11-25T11:07:34;95317.75;;;7.91;100.00
33155;BME280;19511;42.682;23.332;2022-11-25T11:12:57;95324.44;;;7.86;100.00
33155;BME280;19511;42.682;23.332;2022-11-25T11:15:26;95328.41;;;7.92;100.00
33155;BME280;19511;42.682;23.332;2022-11-25T11:17:55;95321.31;;;7.95;100.00
33155;BME280;19511;42.682;23.332;2022-11-25T11:23:00;95251.44;;;7.26;100.00
33155;BME280;19511;42.682;23.332;2022-11-25T11:25:31;95286.81;;;7.27;100.00
33155;BME280;19511;42.682;23.332;2022-11-25T11:27:58;95324.72;;;7.56;100.00
33155;BME280;19511;42.682;23.332;2022-11-25T11:30:27;95321.59;;;7.61;100.00
33155;BME280;19511;42.682;23.332;2022-11-25T11:36:13;95318.28;;;7.30;100.00
33155;BME280;19511;42.682;23.332;2022-11-25T11:39:08;95335.25;;;7.39;100.00
33155;BME280;19511;42.682;23.332;2022-11-25T11:44:42;95316.63;;;7.18;100.00
33155;BME280;19511;42.682;23.332;2022-11-25T11:50:30;95322.69;;;7.45;100.00
33155;BME280;19511;42.682;23.332;2022-11-25T11:55:48;95316.66;;;7.22;100.00
33155;BME280;19511;42.682;23.332;2022-11-25T11:58:33;95345.84;;;7.37;100.00
33155;BME280;19511;42.682;23.332;2022-11-25T12:04:35;95329.44;;;7.62;100.00
33155;BME280;19511;42.682;23.332;2022-11-25T12:09:47;95313.28;;;7.54;100.00
33155;BME280;19511;42.682;23.332;2022-11-25T12:12:17;95255.34;;;7.25;100.00
33155;BME280;19511;42.682;23.332;2022-11-25T12:14:49;95337.41;;;7.78;100.00
33155;BME280;19511;42.682;23.332;2022-11-25T12:17:44;95334.13;;;7.51;100.00
33155;BME280;19511;42.682;23.332;2022-11-25T12:20:39;95343.88;;;7.41;100.00
33155;BME280;19511;42.682;23.332;2022-11-25T12:23:14;95250.38;;;6.75;100.00
33155;BME280;19511;42.682;23.332;2022-11-25T12:25:41;95338.03;;;7.50;100.00
33155;BME280;19511;42.682;23.332;2022-11-25T12:28:14;95338.13;;;7.68;100.00
33155;BME280;19511;42.682;23.332;2022-11-25T12:33:20;95228.16;;;7.05;100.00
33155;BME280;19511;42.682;23.332;2022-11-25T12:35:57;95340.47;;;7.66;100.00
33155;BME280;19511;42.682;23.332;2022-11-25T12:38:56;95343.66;;;7.75;100.00
33155;BME280;19511;42.682;23.332;2022-11-25T12:42:14;95331.06;;;7.74;100.00
33155;BME280;19511;42.682;23.332;2022-11-25T12:44:24;95347.97;;;7.73;100.00
33155;BME280;19511;42.682;23.332;2022-11-25T12:46:55;95265.63;;;7.35;100.00
33155;BME280;19511;42.682;23.332;2022-11-25T13:02:58;95327.91;;;7.72;100.00
33155;BME280;19511;42.682;23.332;2022-11-25T13:16:30;95312.56;;;7.71;100.00
33155;BME280;19511;42.682;23.332;2022-11-25T13:18:56;95304.25;;;7.57;100.00
33155;BME280;19511;42.682;23.332;2022-11-25T13:21:22;95224.63;;;7.01;100.00
33155;BME280;19511;42.682;23.332;2022-11-25T13:23:56;95312.94;;;7.62;100.00
33155;BME280;19511;42.682;23.332;2022-11-25T13:26:45;95321.97;;;7.59;100.00
33155;BME280;19511;42.682;23.332;2022-11-25T13:32:02;95326.28;;;7.60;100.00
33155;BME280;19511;42.682;23.332;2022-11-25T13:34:30;95327.84;;;7.50;100.00
33155;BME280;19511;42.682;23.332;2022-11-25T13:37:11;95315.59;;;7.44;100.00
33155;BME280;19511;42.682;23.332;2022-11-25T13:40:20;95326.66;;;7.55;100.00
33155;BME280;19511;42.682;23.332;2022-11-25T13:42:57;95250.53;;;7.07;100.00
33155;BME280;19511;42.682;23.332;2022-11-25T13:45:28;95330.53;;;7.43;100.00
33155;BME280;19511;42.682;23.332;2022-11-25T13:48:03;95334.03;;;7.40;100.00
33155;BME280;19511;42.682;23.332;2022-11-25T13:50:29;95340.31;;;7.37;100.00
33155;BME280;19511;42.682;23.332;2022-11-25T13:55:43;95312.66;;;7.08;100.00
33155;BME280;19511;42.682;23.332;2022-11-25T14:16:19;95359.75;;;7.03;100.00
33155;BME280;19511;42.682;23.332;2022-11-25T14:24:36;95359.72;;;6.96;100.00
33155;BME280;19511;42.682;23.332;2022-11-25T14:27:03;95330.91;;;6.79;100.00
33155;BME280;19511;42.682;23.332;2022-11-25T14:29:39;95346.22;;;6.76;100.00
33155;BME280;19511;42.682;23.332;2022-11-25T14:32:17;95370.63;;;6.85;100.00
33155;BME280;19511;42.682;23.332;2022-11-25T14:34:52;95370.22;;;6.83;100.00
33155;BME280;19511;42.682;23.332;2022-11-25T14:37:24;95370.94;;;6.76;100.00
33155;BME280;19511;42.682;23.332;2022-11-25T14:39:58;95375.28;;;6.77;100.00
33155;BME280;19511;42.682;23.332;2022-11-25T14:42:33;95372.84;;;6.68;100.00
33155;BME280;19511;42.682;23.332;2022-11-25T14:44:59;95289.56;;;6.16;100.00
33155;BME280;19511;42.682;23.332;2022-11-25T14:47:27;95360.19;;;6.57;100.00
33155;BME280;19511;42.682;23.332;2022-11-25T14:49:54;95359.34;;;6.52;100.00
33155;BME280;19511;42.682;23.332;2022-11-25T14:52:39;95378.66;;;6.60;100.00
33155;BME280;19511;42.682;23.332;2022-11-25T14:55:08;95373.13;;;6.56;100.00